createdAt,value
2022-11-29T00:01:18.218Z,23.83
2022-11-29T00:03:48.149Z,25.85
2022-11-29T00:06:16.478Z,24.00
2022-11-29T00:08:44.071Z,25.58
2022-11-29T00:11:12.652Z,21.92
2022-11-29T00:13:40.092Z,23.38
2022-11-29T00:16:08.714Z,27.98
2022-11-29T00:18:36.554Z,21.05
2022-11-29T00:21:07.990Z,24.35
2022-11-29T00:23:36.226Z,24.25
2022-11-29T00:26:06.324Z,25.55
2022-11-29T00:28:37.238Z,26.70
2022-11-29T00:31:20.841Z,26.90
2022-11-29T00:33:49.863Z,25.45
2022-11-29T00:36:17.938Z,22.58
2022-11-29T00:38:48.358Z,26.27
2022-11-29T00:41:15.815Z,23.35
2022-11-29T00:43:43.211Z,28.50
2022-11-29T00:46:10.845Z,24.63
2022-11-29T00:48:38.179Z,27.00
2022-11-29T00:51:06.154Z,24.83
2022-11-29T00:53:33.822Z,25.13
2022-11-29T00:56:01.196Z,23.50
2022-11-29T00:58:28.690Z,23.83
2022-11-29T01:00:56.302Z,25.08
2022-11-29T01:03:23.617Z,19.73
2022-11-29T01:05:51.201Z,23.85
2022-11-29T01:08:19.003Z,21.90
2022-11-29T01:10:46.186Z,22.63
2022-11-29T01:13:14.687Z,24.17
2022-11-29T01:15:42.084Z,23.50
2022-11-29T01:18:09.447Z,21.55
2022-11-29T01:20:36.542Z,19.83
2022-11-29T01:23:03.660Z,19.75
2022-11-29T01:25:32.142Z,19.25
2022-11-29T01:27:59.268Z,22.30
2022-11-29T01:30:26.436Z,20.65
2022-11-29T01:32:53.754Z,22.70
2022-11-29T01:35:20.938Z,21.88
2022-11-29T01:37:48.754Z,18.13
2022-11-29T01:40:18.237Z,18.45
2022-11-29T01:42:45.413Z,17.20
2022-11-29T01:45:26.601Z,16.25
2022-11-29T01:47:56.075Z,16.20
2022-11-29T01:50:23.636Z,16.50
2022-11-29T01:52:51.195Z,15.40
2022-11-29T01:55:18.764Z,15.70
2022-11-29T01:57:46.319Z,13.88
2022-11-29T02:00:15.518Z,15.23
2022-11-29T02:02:45.115Z,14.32
2022-11-29T02:05:14.504Z,12.13
2022-11-29T02:07:44.018Z,12.55
2022-11-29T02:10:11.328Z,12.77
2022-11-29T02:12:41.671Z,13.88
2022-11-29T02:15:15.074Z,13.63
2022-11-29T02:18:08.505Z,13.55
2022-11-29T02:20:56.707Z,14.52
2022-11-29T02:23:52.293Z,14.45
2022-11-29T02:26:19.606Z,13.45
2022-11-29T02:28:49.804Z,13.52
2022-11-29T02:31:52.513Z,15.00
2022-11-29T02:34:35.790Z,16.45
2022-11-29T02:37:25.860Z,13.50
2022-11-29T02:39:59.322Z,14.32
2022-11-29T02:42:55.756Z,17.27
2022-11-29T02:45:40.428Z,16.77
2022-11-29T02:48:29.276Z,15.98
2022-11-29T02:51:04.102Z,17.08
2022-11-29T02:53:50.032Z,15.85
2022-11-29T02:56:36.047Z,18.45
2022-11-29T02:59:06.612Z,16.85
2022-11-29T03:01:49.327Z,17.10
2022-11-29T03:04:28.429Z,17.63
2022-11-29T03:07:14.243Z,16.55
2022-11-29T03:09:42.826Z,20.90
2022-11-29T03:12:22.445Z,17.00
2022-11-29T03:15:05.960Z,17.77
2022-11-29T03:18:02.537Z,14.63
2022-11-29T03:20:29.626Z,19.27
2022-11-29T03:23:15.739Z,16.90
2022-11-29T03:25:46.821Z,16.67
2022-11-29T03:28:14.040Z,19.00
2022-11-29T03:30:44.964Z,17.00
2022-11-29T03:33:25.395Z,18.95
2022-11-29T03:36:04.797Z,20.13
2022-11-29T03:38:38.005Z,19.15
2022-11-29T03:41:13.806Z,19.95
2022-11-29T03:43:46.881Z,18.35
2022-11-29T03:46:22.226Z,20.25
2022-11-29T03:48:52.621Z,18.90
2022-11-29T03:51:23.953Z,18.83
2022-11-29T03:53:54.009Z,17.45
2022-11-29T03:56:43.395Z,15.97
2022-11-29T03:59:32.004Z,21.27
2022-11-29T04:02:18.148Z,18.35
2022-11-29T04:04:45.575Z,19.42
2022-11-29T04:07:22.348Z,19.20
2022-11-29T04:10:04.518Z,17.25
2022-11-29T04:12:50.935Z,21.48
2022-11-29T04:15:18.494Z,19.38
2022-11-29T04:18:03.232Z,19.85
2022-11-29T04:20:40.416Z,20.27
2022-11-29T04:23:15.888Z,20.58
2022-11-29T04:26:17.191Z,18.58
2022-11-29T04:29:05.534Z,18.95
2022-11-29T04:31:59.693Z,17.75
2022-11-29T04:34:59.583Z,21.10
2022-11-29T04:37:48.071Z,19.73
2022-11-29T04:40:21.538Z,16.08
2022-11-29T04:43:08.033Z,17.85
2022-11-29T04:45:54.214Z,17.92
2022-11-29T04:48:31.812Z,19.80
2022-11-29T04:51:15.258Z,16.38
2022-11-29T04:53:54.346Z,17.13
2022-11-29T04:56:30.032Z,18.48
2022-11-29T04:58:57.311Z,18.27
2022-11-29T05:01:44.245Z,20.23
2022-11-29T05:04:11.409Z,17.13
2022-11-29T05:06:44.641Z,18.13
2022-11-29T05:09:17.580Z,19.98
2022-11-29T05:11:56.395Z,20.15
2022-11-29T05:14:45.196Z,19.77
2022-11-29T05:17:26.739Z,19.30
2022-11-29T05:19:54.303Z,15.90
2022-11-29T05:22:21.640Z,16.50
2022-11-29T05:25:08.213Z,21.65
2022-11-29T05:27:38.637Z,17.80
2022-11-29T05:30:16.747Z,17.40
2022-11-29T05:32:49.323Z,18.48
2022-11-29T05:35:40.227Z,18.48
2022-11-29T05:38:33.041Z,19.55
2022-11-29T05:41:07.187Z,19.63
2022-11-29T05:43:40.482Z,20.02
2022-11-29T05:46:34.020Z,20.02
2022-11-29T05:49:19.845Z,18.75
2022-11-29T05:52:05.760Z,20.35
2022-11-29T05:54:32.874Z,16.30
2022-11-29T05:57:27.782Z,19.07
2022-11-29T05:59:56.727Z,17.67
2022-11-29T06:02:24.063Z,15.45
2022-11-29T06:05:13.207Z,15.43
2022-11-29T06:07:58.699Z,18.77
2022-11-29T06:10:29.023Z,15.30
2022-11-29T06:13:14.577Z,15.30
2022-11-29T06:15:57.558Z,18.23
2022-11-29T06:18:37.334Z,19.65
2022-11-29T06:21:22.545Z,18.33
2022-11-29T06:24:21.807Z,20.60
2022-11-29T06:27:18.271Z,17.98
2022-11-29T06:29:48.869Z,18.30
2022-11-29T06:32:19.298Z,16.33
2022-11-29T06:34:53.314Z,19.40
2022-11-29T06:37:49.435Z,17.60
2022-11-29T06:40:17.097Z,19.45
2022-11-29T06:42:44.771Z,17.85
2022-11-29T06:45:13.765Z,16.10
2022-11-29T06:47:53.701Z,17.40
2022-11-29T06:50:28.922Z,15.80
2022-11-29T06:53:02.459Z,17.08
2022-11-29T06:55:50.785Z,15.73
2022-11-29T06:58:24.198Z,15.27
2022-11-29T07:00:55.601Z,16.98
2022-11-29T07:03:22.755Z,15.10
2022-11-29T07:05:50.072Z,16.40
2022-11-29T07:08:19.047Z,16.10
2022-11-29T07:10:49.533Z,15.27
2022-11-29T07:13:17.990Z,15.15
2022-11-29T07:16:04.179Z,15.20
2022-11-29T07:18:31.334Z,14.95
2022-11-29T07:21:10.528Z,15.88
2022-11-29T07:26:59.409Z,15.35
2022-11-29T07:29:39.361Z,12.23
2022-11-29T07:32:11.016Z,14.70
2022-11-29T07:34:56.189Z,11.65
2022-11-29T07:37:42.540Z,11.45
2022-11-29T07:40:12.962Z,12.23
2022-11-29T07:42:40.438Z,14.77
2022-11-29T07:45:31.819Z,14.13
2022-11-29T07:48:00.476Z,12.73
2022-11-29T07:50:31.579Z,15.05
2022-11-29T07:52:58.835Z,13.13
2022-11-29T07:55:26.914Z,11.55
2022-11-29T07:57:54.534Z,11.63
2022-11-29T08:00:22.196Z,12.48
2022-11-29T08:02:50.025Z,11.25
2022-11-29T08:05:17.297Z,10.95
2022-11-29T08:07:44.616Z,11.60
2022-11-29T08:10:13.541Z,12.50
2022-11-29T08:12:45.083Z,11.75
2022-11-29T08:15:12.685Z,13.57
2022-11-29T08:17:40.815Z,11.07
2022-11-29T08:20:08.859Z,11.00
2022-11-29T08:22:39.539Z,10.60
2022-11-29T08:25:07.900Z,10.43
2022-11-29T08:27:35.257Z,10.27
2022-11-29T08:30:02.523Z,10.32
2022-11-29T08:32:29.922Z,10.55
2022-11-29T08:34:57.231Z,10.25
2022-11-29T08:37:24.438Z,11.35
2022-11-29T08:39:51.833Z,10.40
2022-11-29T08:42:24.299Z,9.57
2022-11-29T08:47:36.014Z,9.70
2022-11-29T08:50:05.002Z,10.00
2022-11-29T08:52:52.449Z,9.68
2022-11-29T08:55:20.620Z,10.48
2022-11-29T08:57:48.288Z,10.02
2022-11-29T09:00:16.217Z,9.73
2022-11-29T09:02:43.858Z,10.52
2022-11-29T09:05:11.699Z,9.98
2022-11-29T09:07:39.435Z,9.65
2022-11-29T09:10:08.493Z,11.00
2022-11-29T09:12:36.906Z,10.10
2022-11-29T09:15:09.046Z,11.15
2022-11-29T09:17:36.207Z,12.73
2022-11-29T09:20:03.919Z,11.07
2022-11-29T09:22:30.976Z,11.07
2022-11-29T09:24:58.065Z,11.27
2022-11-29T09:27:25.243Z,11.20
2022-11-29T09:29:52.571Z,9.85
2022-11-29T09:32:19.687Z,10.68
2022-11-29T09:34:47.133Z,11.93
2022-11-29T09:37:14.499Z,10.52
2022-11-29T09:39:41.982Z,11.95
2022-11-29T09:42:35.546Z,11.55
2022-11-29T09:45:14.032Z,11.05
2022-11-29T09:48:00.257Z,11.43
2022-11-29T09:50:43.541Z,10.60
2022-11-29T09:53:13.782Z,10.63
2022-11-29T09:56:01.162Z,11.35
2022-11-29T09:58:30.872Z,10.23
2022-11-29T10:01:00.428Z,9.70
2022-11-29T10:03:32.515Z,10.70
2022-11-29T10:06:02.455Z,9.25
2022-11-29T10:08:47.297Z,9.20
2022-11-29T10:11:32.979Z,10.77
2022-11-29T10:14:15.886Z,10.13
2022-11-29T10:16:50.714Z,9.50
2022-11-29T10:19:36.924Z,9.70
2022-11-29T10:22:15.445Z,10.55
2022-11-29T10:24:45.512Z,10.10
2022-11-29T10:27:19.880Z,9.60
2022-11-29T10:29:56.471Z,9.73
2022-11-29T10:32:25.799Z,10.50
2022-11-29T10:34:52.912Z,10.13
2022-11-29T10:37:21.244Z,10.10
2022-11-29T10:39:50.338Z,10.57
2022-11-29T10:42:37.869Z,9.98
2022-11-29T10:45:06.278Z,9.95
2022-11-29T10:47:33.771Z,10.00
2022-11-29T10:50:01.509Z,10.57
2022-11-29T10:52:28.977Z,9.63
2022-11-29T10:54:57.489Z,9.48
2022-11-29T10:57:24.997Z,9.05
2022-11-29T11:00:04.634Z,9.07
2022-11-29T11:02:32.728Z,9.75
2022-11-29T11:05:00.204Z,10.03
2022-11-29T11:07:38.070Z,10.40
2022-11-29T11:10:45.944Z,9.27
2022-11-29T11:13:22.374Z,9.90
2022-11-29T11:15:52.065Z,10.50
2022-11-29T11:18:32.036Z,10.70
2022-11-29T11:21:05.070Z,9.32
2022-11-29T11:23:42.788Z,10.68
2022-11-29T11:26:12.220Z,9.80
2022-11-29T11:29:00.114Z,10.02
2022-11-29T11:31:30.749Z,9.90
2022-11-29T11:33:58.513Z,10.32
2022-11-29T11:36:29.011Z,10.27
2022-11-29T11:39:00.296Z,10.82
2022-11-29T11:41:48.703Z,9.75
2022-11-29T11:44:46.368Z,10.53
2022-11-29T11:47:19.777Z,9.95
2022-11-29T11:49:54.260Z,10.60
2022-11-29T11:52:23.419Z,9.38
2022-11-29T11:55:14.162Z,9.57
2022-11-29T11:57:41.561Z,9.60
2022-11-29T12:00:55.563Z,9.77
2022-11-29T12:03:24.138Z,9.88
2022-11-29T12:05:52.597Z,10.60
2022-11-29T12:08:20.605Z,9.98
2022-11-29T12:10:49.362Z,10.90
2022-11-29T12:13:20.851Z,10.45
2022-11-29T12:15:49.937Z,10.25
2022-11-29T12:18:25.441Z,10.30
2022-11-29T12:21:13.684Z,10.63
2022-11-29T12:23:45.142Z,9.63
2022-11-29T12:26:48.937Z,10.48
2022-11-29T12:29:15.890Z,9.65
2022-11-29T12:32:05.343Z,10.15
2022-11-29T12:34:47.845Z,9.25
2022-11-29T12:37:27.911Z,10.07
2022-11-29T12:39:58.586Z,9.98
2022-11-29T12:42:44.240Z,9.88
2022-11-29T12:45:27.056Z,8.95
2022-11-29T12:47:54.608Z,9.82
2022-11-29T12:50:28.865Z,9.73
2022-11-29T12:53:15.229Z,9.90
2022-11-29T12:55:42.848Z,10.52
2022-11-29T12:58:27.950Z,9.23
2022-11-29T13:00:54.969Z,9.13
2022-11-29T13:03:29.527Z,9.73
2022-11-29T13:06:03.710Z,9.18
2022-11-29T13:08:49.939Z,9.70
2022-11-29T13:11:22.694Z,9.68
2022-11-29T13:14:03.837Z,9.85
2022-11-29T13:16:57.172Z,9.47
2022-11-29T13:19:45.922Z,9.75
2022-11-29T13:22:27.813Z,9.30
2022-11-29T13:25:07.078Z,9.18
2022-11-29T13:27:36.898Z,10.10
2022-11-29T13:30:05.534Z,9.00
2022-11-29T13:32:32.990Z,8.65
2022-11-29T13:35:05.897Z,8.85
2022-11-29T13:37:39.438Z,8.70
2022-11-29T13:40:06.681Z,8.35
2022-11-29T13:42:45.303Z,8.37
2022-11-29T13:45:19.952Z,8.43
2022-11-29T13:47:58.690Z,8.55
2022-11-29T13:50:40.428Z,8.95
2022-11-29T13:53:24.127Z,9.25
2022-11-29T13:56:02.536Z,9.23
2022-11-29T13:58:41.689Z,8.93
2022-11-29T14:01:10.943Z,10.20
2022-11-29T14:03:38.541Z,9.10
2022-11-29T14:06:16.726Z,8.43
2022-11-29T14:11:36.033Z,9.82
2022-11-29T14:14:12.680Z,8.70
2022-11-29T14:16:42.970Z,9.35
2022-11-29T14:19:10.490Z,9.40
2022-11-29T14:21:57.039Z,9.67
2022-11-29T14:24:36.513Z,9.27
2022-11-29T14:27:10.046Z,8.75
2022-11-29T14:29:49.697Z,9.48
2022-11-29T14:32:30.827Z,9.63
2022-11-29T14:35:13.631Z,11.00
2022-11-29T14:37:41.346Z,10.15
2022-11-29T14:40:34.492Z,9.77
2022-11-29T14:43:02.983Z,10.25
2022-11-29T14:45:32.436Z,9.10
2022-11-29T14:47:59.993Z,10.63
2022-11-29T14:50:32.263Z,9.55
2022-11-29T14:53:04.575Z,9.90
2022-11-29T14:55:33.525Z,10.32
2022-11-29T14:58:09.311Z,9.88
2022-11-29T15:00:45.680Z,9.07
2022-11-29T15:03:15.145Z,10.27
2022-11-29T15:05:52.720Z,10.27
2022-11-29T15:08:38.833Z,10.07
2022-11-29T15:11:12.991Z,9.85
2022-11-29T15:13:45.902Z,10.50
2022-11-29T15:16:25.915Z,9.63
2022-11-29T15:19:04.978Z,11.07
2022-11-29T15:21:41.442Z,11.13
2022-11-29T15:24:16.410Z,11.23
2022-11-29T15:27:00.454Z,10.43
2022-11-29T15:29:31.433Z,10.45
2022-11-29T15:32:00.475Z,10.82
2022-11-29T15:34:35.942Z,10.93
2022-11-29T15:37:03.581Z,10.05
2022-11-29T15:39:31.041Z,10.23
2022-11-29T15:42:09.352Z,10.73
2022-11-29T15:44:36.693Z,9.90
2022-11-29T15:47:17.833Z,10.48
2022-11-29T15:49:45.226Z,10.50
2022-11-29T15:52:20.222Z,9.75
2022-11-29T15:54:51.107Z,13.55
2022-11-29T15:57:21.329Z,12.30
2022-11-29T16:00:00.225Z,11.05
2022-11-29T16:02:31.971Z,10.57
2022-11-29T16:08:01.722Z,10.00
2022-11-29T16:10:49.417Z,9.63
2022-11-29T16:13:32.965Z,10.80
2022-11-29T16:16:21.301Z,12.43
2022-11-29T16:18:51.655Z,11.07
2022-11-29T16:21:24.107Z,10.93
2022-11-29T16:23:51.561Z,12.07
2022-11-29T16:26:26.502Z,11.30
2022-11-29T16:29:19.616Z,11.25
2022-11-29T16:31:47.501Z,12.07
2022-11-29T16:34:27.733Z,11.57
2022-11-29T16:37:05.536Z,11.30
2022-11-29T16:39:34.271Z,11.75
2022-11-29T16:42:09.602Z,14.88
2022-11-29T16:44:36.989Z,14.97
2022-11-29T16:47:19.891Z,19.38
2022-11-29T16:49:50.723Z,15.95
2022-11-29T16:52:28.304Z,13.98
2022-11-29T16:54:55.357Z,18.23
2022-11-29T16:57:22.974Z,17.03
2022-11-29T16:59:50.562Z,16.02
2022-11-29T17:02:18.403Z,13.70
2022-11-29T17:04:45.939Z,17.15
2022-11-29T17:07:15.891Z,17.23
2022-11-29T17:09:43.166Z,16.80
2022-11-29T17:12:12.981Z,14.65
2022-11-29T17:14:40.639Z,14.88
2022-11-29T17:17:08.200Z,12.63
2022-11-29T17:19:35.758Z,14.02
2022-11-29T17:22:03.321Z,13.77
2022-11-29T17:24:31.040Z,12.52
2022-11-29T17:26:58.540Z,11.90
2022-11-29T17:29:25.981Z,13.32
2022-11-29T17:31:53.958Z,13.27
2022-11-29T17:34:21.639Z,12.40
2022-11-29T17:36:49.264Z,13.27
2022-11-29T17:39:21.155Z,12.93
2022-11-29T17:41:51.445Z,13.00
2022-11-29T17:44:27.037Z,11.93
2022-11-29T17:46:54.655Z,13.00
2022-11-29T17:49:22.666Z,9.70
2022-11-29T17:51:53.454Z,12.38
2022-11-29T17:54:29.960Z,15.18
2022-11-29T17:56:57.663Z,13.15
2022-11-29T17:59:25.799Z,12.50
2022-11-29T18:01:58.543Z,12.57
2022-11-29T18:04:25.780Z,10.43
2022-11-29T18:06:54.099Z,12.48
2022-11-29T18:09:43.647Z,11.70
2022-11-29T18:12:16.461Z,13.40
2022-11-29T18:14:46.373Z,10.80
2022-11-29T18:17:31.180Z,8.55
2022-11-29T18:20:17.223Z,12.05
2022-11-29T18:23:07.694Z,9.98
2022-11-29T18:32:40.395Z,10.30
2022-11-29T18:39:02.953Z,8.80
2022-11-29T18:41:30.988Z,7.70
2022-11-29T18:43:59.780Z,8.10
2022-11-29T18:46:32.487Z,7.95
2022-11-29T18:49:01.243Z,8.80
2022-11-29T18:51:29.712Z,9.20
2022-11-29T18:53:57.598Z,9.80
2022-11-29T18:56:25.732Z,9.68
2022-11-29T18:58:58.254Z,14.32
2022-11-29T19:01:27.734Z,9.27
2022-11-29T19:03:56.632Z,7.88
2022-11-29T19:06:25.929Z,7.90
2022-11-29T19:09:00.551Z,7.05
2022-11-29T19:14:12.093Z,7.05
2022-11-29T19:18:00.112Z,7.20
2022-11-29T19:20:04.513Z,7.63
2022-11-29T19:23:00.593Z,7.00
2022-11-29T19:25:34.871Z,7.60
2022-11-29T19:28:14.297Z,7.05
2022-11-29T19:30:50.164Z,7.53
2022-11-29T19:33:17.647Z,7.47
2022-11-29T19:35:45.037Z,7.18
2022-11-29T19:38:12.650Z,7.22
2022-11-29T19:40:40.240Z,7.50
2022-11-29T19:43:07.606Z,7.10
2022-11-29T19:45:35.044Z,7.13
2022-11-29T19:48:02.507Z,6.97
2022-11-29T19:50:29.994Z,7.30
2022-11-29T19:52:57.271Z,7.22
2022-11-29T19:55:25.818Z,7.07
2022-11-29T19:57:55.644Z,6.63
2022-11-29T20:00:23.069Z,6.45
2022-11-29T20:02:50.301Z,6.65
2022-11-29T20:05:17.603Z,6.30
2022-11-29T20:07:44.734Z,6.03
2022-11-29T20:10:12.135Z,5.73
2022-11-29T20:12:39.368Z,6.30
2022-11-29T20:15:06.911Z,6.05
2022-11-29T20:17:34.047Z,6.50
2022-11-29T20:20:01.199Z,10.48
2022-11-29T20:22:28.479Z,6.97
2022-11-29T20:24:56.019Z,6.63
2022-11-29T20:27:23.825Z,6.47
2022-11-29T20:29:51.099Z,6.50
2022-11-29T20:32:18.657Z,6.90
2022-11-29T20:34:45.869Z,6.60
2022-11-29T20:37:21.595Z,6.55
2022-11-29T20:40:01.953Z,7.00
2022-11-29T20:42:40.675Z,6.63
2022-11-29T20:45:10.178Z,6.50
2022-11-29T20:47:38.158Z,6.33
2022-11-29T20:50:05.894Z,7.00
2022-11-29T20:52:41.764Z,6.97
2022-11-29T20:55:12.953Z,7.25
2022-11-29T20:57:40.630Z,7.00
2022-11-29T21:00:10.299Z,7.57
2022-11-29T21:02:37.652Z,7.25
2022-11-29T21:05:05.806Z,7.50
2022-11-29T21:07:39.848Z,7.82
2022-11-29T21:10:09.111Z,7.28
2022-11-29T21:12:39.722Z,7.97
2022-11-29T21:15:07.271Z,7.72
2022-11-29T21:17:34.519Z,9.43
2022-11-29T21:20:02.092Z,24.10
2022-11-29T21:22:41.761Z,11.95
2022-11-29T21:25:14.506Z,10.77
2022-11-29T21:27:43.320Z,7.90
2022-11-29T21:30:17.171Z,8.68
2022-11-29T21:32:44.455Z,9.98
2022-11-29T21:35:11.532Z,7.50
2022-11-29T21:37:38.742Z,8.60
2022-11-29T21:40:07.439Z,7.35
2022-11-29T21:42:34.646Z,7.72
2022-11-29T21:45:03.146Z,8.05
2022-11-29T21:47:41.605Z,8.32
2022-11-29T21:50:09.165Z,7.40
2022-11-29T21:52:36.375Z,7.53
2022-11-29T21:55:03.706Z,7.75
2022-11-29T21:57:31.950Z,8.07
2022-11-29T21:59:59.138Z,9.30
2022-11-29T22:02:26.436Z,8.60
2022-11-29T22:04:53.865Z,8.38
2022-11-29T22:07:21.148Z,9.18
2022-11-29T22:09:48.366Z,8.50
2022-11-29T22:12:33.211Z,8.15
2022-11-29T22:18:28.503Z,8.27
2022-11-29T22:20:55.665Z,8.82
2022-11-29T22:23:22.773Z,8.73
2022-11-29T22:25:49.864Z,8.43
2022-11-29T22:28:18.059Z,8.40
2022-11-29T22:30:45.155Z,8.70
2022-11-29T22:33:13.601Z,8.05
2022-11-29T22:36:01.960Z,8.43
2022-11-29T22:38:29.228Z,7.80
2022-11-29T22:41:00.172Z,8.63
2022-11-29T22:43:27.490Z,8.40
2022-11-29T22:45:54.579Z,8.63
2022-11-29T22:48:23.029Z,8.18
2022-11-29T22:50:50.124Z,8.27
2022-11-29T22:53:17.286Z,7.87
2022-11-29T22:55:44.527Z,8.60
2022-11-29T22:58:11.814Z,8.77
2022-11-29T23:00:44.493Z,8.60
2022-11-29T23:03:13.219Z,8.93
2022-11-29T23:05:41.269Z,8.57
2022-11-29T23:08:08.950Z,8.63
2022-11-29T23:10:37.061Z,8.93
2022-11-29T23:13:05.559Z,8.45
2022-11-29T23:15:34.266Z,8.85
2022-11-29T23:18:01.490Z,8.50
2022-11-29T23:20:28.687Z,8.48
2022-11-29T23:22:55.937Z,8.60
2022-11-29T23:25:23.230Z,8.35
2022-11-29T23:27:57.668Z,9.45
2022-11-29T23:30:28.022Z,8.97
2022-11-29T23:32:57.718Z,8.75
2022-11-29T23:35:25.226Z,9.95
2022-11-29T23:37:52.819Z,9.43
2022-11-29T23:40:37.575Z,9.40
2022-11-29T23:43:05.001Z,9.07
2022-11-29T23:45:32.357Z,9.60
2022-11-29T23:48:08.986Z,9.70
2022-11-29T23:50:36.195Z,10.27
2022-11-29T23:53:03.458Z,9.80
2022-11-29T23:55:30.867Z,9.27
2022-11-29T23:58:00.782Z,9.23
